sensor_id;sensor_type;location;lat;lon;timestamp;temperature;humidity
40600;DHT22;26309;50.924;4.754;2023-04-29T00:00:11;11.80;99.90
40600;DHT22;26309;50.924;4.754;2023-04-29T00:02:37;11.60;99.90
40600;DHT22;26309;50.924;4.754;2023-04-29T00:05:03;11.70;99.90
40600;DHT22;26309;50.924;4.754;2023-04-29T00:07:30;11.80;99.90
40600;DHT22;26309;50.924;4.754;2023-04-29T00:10:00;11.80;99.90
40600;DHT22;26309;50.924;4.754;2023-04-29T00:12:26;11.70;99.90
40600;DHT22;26309;50.924;4.754;2023-04-29T00:14:52;11.50;99.90
40600;DHT22;26309;50.924;4.754;2023-04-29T00:17:18;11.40;99.90
40600;DHT22;26309;50.924;4.754;2023-04-29T00:19:46;11.40;99.90
40600;DHT22;26309;50.924;4.754;2023-04-29T00:22:12;11.50;99.90
40600;DHT22;26309;50.924;4.754;2023-04-29T00:24:38;11.60;99.90
40600;DHT22;26309;50.924;4.754;2023-04-29T00:27:04;11.70;99.90
40600;DHT22;26309;50.924;4.754;2023-04-29T00:29:31;11.70;99.90
40600;DHT22;26309;50.924;4.754;2023-04-29T00:31:57;11.70;99.90
40600;DHT22;26309;50.924;4.754;2023-04-29T00:34:23;11.40;99.90
40600;DHT22;26309;50.924;4.754;2023-04-29T00:36:49;11.20;99.90
40600;DHT22;26309;50.924;4.754;2023-04-29T00:39:15;11.00;99.90
40600;DHT22;26309;50.924;4.754;2023-04-29T00:41:41;11.00;99.90
40600;DHT22;26309;50.924;4.754;2023-04-29T00:44:07;10.90;99.90
40600;DHT22;26309;50.924;4.754;2023-04-29T00:46:33;10.80;99.90
40600;DHT22;26309;50.924;4.754;2023-04-29T00:48:59;10.90;99.90
40600;DHT22;26309;50.924;4.754;2023-04-29T00:51:26;10.90;99.90
40600;DHT22;26309;50.924;4.754;2023-04-29T00:53:52;11.10;99.90
40600;DHT22;26309;50.924;4.754;2023-04-29T00:56:19;11.10;99.90
40600;DHT22;26309;50.924;4.754;2023-04-29T00:58:45;11.00;99.90
40600;DHT22;26309;50.924;4.754;2023-04-29T01:01:15;10.90;99.90
40600;DHT22;26309;50.924;4.754;2023-04-29T01:03:42;11.00;99.90
40600;DHT22;26309;50.924;4.754;2023-04-29T01:09:41;10.80;99.90
40600;DHT22;26309;50.924;4.754;2023-04-29T01:15:21;10.90;99.90
40600;DHT22;26309;50.924;4.754;2023-04-29T01:18:00;11.00;99.90
40600;DHT22;26309;50.924;4.754;2023-04-29T01:20:29;10.90;99.90
40600;DHT22;26309;50.924;4.754;2023-04-29T01:22:55;11.10;99.90
40600;DHT22;26309;50.924;4.754;2023-04-29T01:25:21;11.10;99.90
40600;DHT22;26309;50.924;4.754;2023-04-29T01:30:46;11.20;99.90
40600;DHT22;26309;50.924;4.754;2023-04-29T01:33:30;11.10;99.90
40600;DHT22;26309;50.924;4.754;2023-04-29T01:38:59;11.00;99.90
40600;DHT22;26309;50.924;4.754;2023-04-29T01:44:02;11.20;99.90
40600;DHT22;26309;50.924;4.754;2023-04-29T01:46:31;11.30;99.90
40600;DHT22;26309;50.924;4.754;2023-04-29T01:48:57;11.20;99.90
40600;DHT22;26309;50.924;4.754;2023-04-29T01:51:23;11.10;99.90
40600;DHT22;26309;50.924;4.754;2023-04-29T01:53:48;11.00;99.90
40600;DHT22;26309;50.924;4.754;2023-04-29T01:56:14;11.10;99.90
40600;DHT22;26309;50.924;4.754;2023-04-29T01:58:40;11.20;99.90
40600;DHT22;26309;50.924;4.754;2023-04-29T02:01:06;10.90;99.90
40600;DHT22;26309;50.924;4.754;2023-04-29T02:03:35;10.90;99.90
40600;DHT22;26309;50.924;4.754;2023-04-29T02:06:01;10.80;99.90
40600;DHT22;26309;50.924;4.754;2023-04-29T02:08:27;10.70;99.90
40600;DHT22;26309;50.924;4.754;2023-04-29T02:10:57;10.80;99.90
40600;DHT22;26309;50.924;4.754;2023-04-29T02:13:23;10.80;99.90
40600;DHT22;26309;50.924;4.754;2023-04-29T02:15:49;10.80;99.90
40600;DHT22;26309;50.924;4.754;2023-04-29T02:18:15;10.80;99.90
40600;DHT22;26309;50.924;4.754;2023-04-29T02:20:41;10.80;99.90
40600;DHT22;26309;50.924;4.754;2023-04-29T02:23:09;10.70;99.90
40600;DHT22;26309;50.924;4.754;2023-04-29T02:25:35;10.70;99.90
40600;DHT22;26309;50.924;4.754;2023-04-29T02:28:01;10.70;99.90
40600;DHT22;26309;50.924;4.754;2023-04-29T02:30:27;10.70;99.90
40600;DHT22;26309;50.924;4.754;2023-04-29T02:32:53;10.70;99.90
40600;DHT22;26309;50.924;4.754;2023-04-29T02:35:19;10.80;99.90
40600;DHT22;26309;50.924;4.754;2023-04-29T02:37:46;10.60;99.90
40600;DHT22;26309;50.924;4.754;2023-04-29T02:40:12;10.50;99.90
40600;DHT22;26309;50.924;4.754;2023-04-29T02:42:38;10.70;99.90
40600;DHT22;26309;50.924;4.754;2023-04-29T02:45:05;10.70;99.90
40600;DHT22;26309;50.924;4.754;2023-04-29T02:47:31;10.70;99.90
40600;DHT22;26309;50.924;4.754;2023-04-29T02:49:57;10.60;99.90
40600;DHT22;26309;50.924;4.754;2023-04-29T02:52:23;10.70;99.90
40600;DHT22;26309;50.924;4.754;2023-04-29T02:54:49;10.60;99.90
40600;DHT22;26309;50.924;4.754;2023-04-29T02:57:15;10.70;99.90
40600;DHT22;26309;50.924;4.754;2023-04-29T02:59:40;10.70;99.90
40600;DHT22;26309;50.924;4.754;2023-04-29T03:02:06;10.60;99.90
40600;DHT22;26309;50.924;4.754;2023-04-29T03:04:32;10.60;99.90
40600;DHT22;26309;50.924;4.754;2023-04-29T03:06:58;10.80;99.90
40600;DHT22;26309;50.924;4.754;2023-04-29T03:09:24;10.80;99.90
40600;DHT22;26309;50.924;4.754;2023-04-29T03:11:50;10.60;99.90
40600;DHT22;26309;50.924;4.754;2023-04-29T03:14:16;10.60;99.90
40600;DHT22;26309;50.924;4.754;2023-04-29T03:16:41;10.60;99.90
40600;DHT22;26309;50.924;4.754;2023-04-29T03:19:07;10.80;99.90
40600;DHT22;26309;50.924;4.754;2023-04-29T03:21:36;10.70;99.90
40600;DHT22;26309;50.924;4.754;2023-04-29T03:24:02;10.70;99.90
40600;DHT22;26309;50.924;4.754;2023-04-29T03:26:28;10.70;99.90
40600;DHT22;26309;50.924;4.754;2023-04-29T03:28:54;10.80;99.90
40600;DHT22;26309;50.924;4.754;2023-04-29T03:31:19;10.70;99.90
40600;DHT22;26309;50.924;4.754;2023-04-29T03:33:47;10.70;99.90
40600;DHT22;26309;50.924;4.754;2023-04-29T03:36:13;10.60;99.90
40600;DHT22;26309;50.924;4.754;2023-04-29T03:38:40;10.80;99.90
40600;DHT22;26309;50.924;4.754;2023-04-29T03:41:05;11.00;99.90
40600;DHT22;26309;50.924;4.754;2023-04-29T03:43:32;11.30;99.90
40600;DHT22;26309;50.924;4.754;2023-04-29T03:45:58;11.30;99.90
40600;DHT22;26309;50.924;4.754;2023-04-29T03:48:23;11.40;99.90
40600;DHT22;26309;50.924;4.754;2023-04-29T03:50:49;11.30;99.90
40600;DHT22;26309;50.924;4.754;2023-04-29T03:53:16;11.20;99.90
40600;DHT22;26309;50.924;4.754;2023-04-29T03:55:42;11.00;99.90
40600;DHT22;26309;50.924;4.754;2023-04-29T03:58:07;10.60;99.90
40600;DHT22;26309;50.924;4.754;2023-04-29T04:00:33;10.70;99.90
40600;DHT22;26309;50.924;4.754;2023-04-29T04:02:59;11.00;99.90
40600;DHT22;26309;50.924;4.754;2023-04-29T04:05:25;11.10;99.90
40600;DHT22;26309;50.924;4.754;2023-04-29T04:07:51;11.00;99.90
40600;DHT22;26309;50.924;4.754;2023-04-29T04:10:18;10.80;99.90
40600;DHT22;26309;50.924;4.754;2023-04-29T04:12:43;10.80;99.90
40600;DHT22;26309;50.924;4.754;2023-04-29T04:15:10;10.90;99.90
40600;DHT22;26309;50.924;4.754;2023-04-29T04:17:36;10.90;99.90
40600;DHT22;26309;50.924;4.754;2023-04-29T04:20:02;10.80;99.90
40600;DHT22;26309;50.924;4.754;2023-04-29T04:22:28;10.90;99.90
40600;DHT22;26309;50.924;4.754;2023-04-29T04:24:54;10.90;99.90
40600;DHT22;26309;50.924;4.754;2023-04-29T04:27:20;10.80;99.90
40600;DHT22;26309;50.924;4.754;2023-04-29T04:29:46;10.90;99.90
40600;DHT22;26309;50.924;4.754;2023-04-29T04:32:11;10.90;99.90
40600;DHT22;26309;50.924;4.754;2023-04-29T04:34:37;10.80;99.90
40600;DHT22;26309;50.924;4.754;2023-04-29T04:37:06;10.80;99.90
40600;DHT22;26309;50.924;4.754;2023-04-29T04:39:32;10.80;99.90
40600;DHT22;26309;50.924;4.754;2023-04-29T04:41:58;10.80;99.90
40600;DHT22;26309;50.924;4.754;2023-04-29T04:44:24;10.80;99.90
40600;DHT22;26309;50.924;4.754;2023-04-29T04:46:50;11.00;99.90
40600;DHT22;26309;50.924;4.754;2023-04-29T04:49:16;10.80;99.90
40600;DHT22;26309;50.924;4.754;2023-04-29T04:51:45;10.70;99.90
40600;DHT22;26309;50.924;4.754;2023-04-29T04:54:12;10.50;99.90
40600;DHT22;26309;50.924;4.754;2023-04-29T04:56:38;10.60;99.90
40600;DHT22;26309;50.924;4.754;2023-04-29T04:59:03;10.70;99.90
40600;DHT22;26309;50.924;4.754;2023-04-29T05:01:32;10.80;99.90
40600;DHT22;26309;50.924;4.754;2023-04-29T05:03:59;10.90;99.90
40600;DHT22;26309;50.924;4.754;2023-04-29T05:06:25;11.00;99.90
40600;DHT22;26309;50.924;4.754;2023-04-29T05:08:51;10.70;99.90
40600;DHT22;26309;50.924;4.754;2023-04-29T05:11:17;10.80;99.90
40600;DHT22;26309;50.924;4.754;2023-04-29T05:13:44;10.90;99.90
40600;DHT22;26309;50.924;4.754;2023-04-29T05:16:10;11.10;99.90
40600;DHT22;26309;50.924;4.754;2023-04-29T05:18:35;11.20;99.90
40600;DHT22;26309;50.924;4.754;2023-04-29T05:21:01;11.40;99.90
40600;DHT22;26309;50.924;4.754;2023-04-29T05:23:33;11.30;99.90
40600;DHT22;26309;50.924;4.754;2023-04-29T05:25:59;11.30;99.90
40600;DHT22;26309;50.924;4.754;2023-04-29T05:28:25;11.40;99.90
40600;DHT22;26309;50.924;4.754;2023-04-29T05:30:51;11.50;99.90
40600;DHT22;26309;50.924;4.754;2023-04-29T05:33:20;11.30;99.90
40600;DHT22;26309;50.924;4.754;2023-04-29T05:35:51;11.30;99.90
40600;DHT22;26309;50.924;4.754;2023-04-29T05:38:17;11.20;99.90
40600;DHT22;26309;50.924;4.754;2023-04-29T05:40:43;11.00;99.90
40600;DHT22;26309;50.924;4.754;2023-04-29T05:43:10;11.10;99.90
40600;DHT22;26309;50.924;4.754;2023-04-29T05:45:36;11.00;99.90
40600;DHT22;26309;50.924;4.754;2023-04-29T05:48:01;10.90;99.90
40600;DHT22;26309;50.924;4.754;2023-04-29T05:50:27;11.00;99.90
40600;DHT22;26309;50.924;4.754;2023-04-29T05:52:53;11.20;99.90
40600;DHT22;26309;50.924;4.754;2023-04-29T05:55:20;11.20;99.90
40600;DHT22;26309;50.924;4.754;2023-04-29T05:57:46;11.30;99.90
40600;DHT22;26309;50.924;4.754;2023-04-29T06:00:12;11.30;99.90
40600;DHT22;26309;50.924;4.754;2023-04-29T06:02:38;11.00;99.90
40600;DHT22;26309;50.924;4.754;2023-04-29T06:05:08;10.90;99.90
40600;DHT22;26309;50.924;4.754;2023-04-29T06:07:34;10.90;99.90
40600;DHT22;26309;50.924;4.754;2023-04-29T06:10:01;11.00;99.90
40600;DHT22;26309;50.924;4.754;2023-04-29T06:12:27;11.00;99.90
40600;DHT22;26309;50.924;4.754;2023-04-29T06:14:52;10.90;99.90
40600;DHT22;26309;50.924;4.754;2023-04-29T06:17:18;11.10;99.90
40600;DHT22;26309;50.924;4.754;2023-04-29T06:19:44;11.20;99.90
40600;DHT22;26309;50.924;4.754;2023-04-29T06:22:10;11.10;99.90
40600;DHT22;26309;50.924;4.754;2023-04-29T06:24:36;11.10;99.90
40600;DHT22;26309;50.924;4.754;2023-04-29T06:27:02;11.20;99.90
40600;DHT22;26309;50.924;4.754;2023-04-29T06:29:29;11.20;99.90
40600;DHT22;26309;50.924;4.754;2023-04-29T06:31:55;11.30;99.90
40600;DHT22;26309;50.924;4.754;2023-04-29T06:34:21;11.00;99.90
40600;DHT22;26309;50.924;4.754;2023-04-29T06:36:47;11.00;99.90
40600;DHT22;26309;50.924;4.754;2023-04-29T06:39:13;10.90;99.90
40600;DHT22;26309;50.924;4.754;2023-04-29T06:41:38;11.10;99.90
40600;DHT22;26309;50.924;4.754;2023-04-29T06:44:05;11.20;99.90
40600;DHT22;26309;50.924;4.754;2023-04-29T06:46:30;11.00;99.90
40600;DHT22;26309;50.924;4.754;2023-04-29T06:48:57;11.00;99.90
40600;DHT22;26309;50.924;4.754;2023-04-29T06:51:23;11.30;99.90
40600;DHT22;26309;50.924;4.754;2023-04-29T06:53:49;11.30;99.90
40600;DHT22;26309;50.924;4.754;2023-04-29T06:56:15;11.40;99.90
40600;DHT22;26309;50.924;4.754;2023-04-29T06:58:41;11.50;99.90
40600;DHT22;26309;50.924;4.754;2023-04-29T07:01:07;11.50;99.90
40600;DHT22;26309;50.924;4.754;2023-04-29T07:03:33;11.30;99.90
40600;DHT22;26309;50.924;4.754;2023-04-29T07:05:59;11.40;99.90
40600;DHT22;26309;50.924;4.754;2023-04-29T07:08:25;11.40;99.90
40600;DHT22;26309;50.924;4.754;2023-04-29T07:10:57;11.40;99.90
40600;DHT22;26309;50.924;4.754;2023-04-29T07:13:24;11.10;99.90
40600;DHT22;26309;50.924;4.754;2023-04-29T07:15:50;11.00;99.90
40600;DHT22;26309;50.924;4.754;2023-04-29T07:18:16;11.10;99.90
40600;DHT22;26309;50.924;4.754;2023-04-29T07:20:42;11.10;99.90
40600;DHT22;26309;50.924;4.754;2023-04-29T07:23:09;11.10;99.90
40600;DHT22;26309;50.924;4.754;2023-04-29T07:25:35;11.20;99.90
40600;DHT22;26309;50.924;4.754;2023-04-29T07:28:01;11.00;99.90
40600;DHT22;26309;50.924;4.754;2023-04-29T07:30:27;11.10;99.90
40600;DHT22;26309;50.924;4.754;2023-04-29T07:32:53;11.00;99.90
40600;DHT22;26309;50.924;4.754;2023-04-29T07:35:19;10.90;99.90
40600;DHT22;26309;50.924;4.754;2023-04-29T07:37:45;10.80;99.90
40600;DHT22;26309;50.924;4.754;2023-04-29T07:40:11;10.90;99.90
40600;DHT22;26309;50.924;4.754;2023-04-29T07:42:37;11.10;99.90
40600;DHT22;26309;50.924;4.754;2023-04-29T07:45:03;11.40;99.90
40600;DHT22;26309;50.924;4.754;2023-04-29T07:47:30;11.50;99.90
40600;DHT22;26309;50.924;4.754;2023-04-29T07:49:56;11.70;99.90
40600;DHT22;26309;50.924;4.754;2023-04-29T07:52:22;11.60;99.90
40600;DHT22;26309;50.924;4.754;2023-04-29T07:54:48;11.70;99.90
40600;DHT22;26309;50.924;4.754;2023-04-29T07:57:14;11.70;99.90
40600;DHT22;26309;50.924;4.754;2023-04-29T07:59:40;11.70;99.90
40600;DHT22;26309;50.924;4.754;2023-04-29T08:02:06;11.90;99.90
40600;DHT22;26309;50.924;4.754;2023-04-29T08:04:32;12.30;99.90
40600;DHT22;26309;50.924;4.754;2023-04-29T08:06:58;12.50;99.90
40600;DHT22;26309;50.924;4.754;2023-04-29T08:09:24;12.60;99.90
40600;DHT22;26309;50.924;4.754;2023-04-29T08:11:50;12.60;99.90
40600;DHT22;26309;50.924;4.754;2023-04-29T08:14:15;12.50;99.90
40600;DHT22;26309;50.924;4.754;2023-04-29T08:16:41;12.40;99.90
40600;DHT22;26309;50.924;4.754;2023-04-29T08:19:07;12.50;99.90
40600;DHT22;26309;50.924;4.754;2023-04-29T08:21:33;12.60;99.90
40600;DHT22;26309;50.924;4.754;2023-04-29T08:23:59;12.50;99.90
40600;DHT22;26309;50.924;4.754;2023-04-29T08:26:25;12.50;99.90
40600;DHT22;26309;50.924;4.754;2023-04-29T08:28:52;12.40;99.90
40600;DHT22;26309;50.924;4.754;2023-04-29T08:31:18;12.50;99.90
40600;DHT22;26309;50.924;4.754;2023-04-29T08:33:45;12.50;99.90
40600;DHT22;26309;50.924;4.754;2023-04-29T08:36:14;12.40;99.90
40600;DHT22;26309;50.924;4.754;2023-04-29T08:38:40;12.30;99.90
40600;DHT22;26309;50.924;4.754;2023-04-29T08:41:15;12.40;99.90
40600;DHT22;26309;50.924;4.754;2023-04-29T08:43:41;12.50;99.90
40600;DHT22;26309;50.924;4.754;2023-04-29T08:46:07;12.50;99.90
40600;DHT22;26309;50.924;4.754;2023-04-29T08:48:36;12.70;99.90
40600;DHT22;26309;50.924;4.754;2023-04-29T08:51:02;12.30;99.90
40600;DHT22;26309;50.924;4.754;2023-04-29T08:53:28;12.30;99.90
40600;DHT22;26309;50.924;4.754;2023-04-29T08:55:54;12.40;99.90
40600;DHT22;26309;50.924;4.754;2023-04-29T08:58:23;12.60;99.90
40600;DHT22;26309;50.924;4.754;2023-04-29T09:00:50;12.70;99.90
40600;DHT22;26309;50.924;4.754;2023-04-29T09:06:06;12.80;99.90
40600;DHT22;26309;50.924;4.754;2023-04-29T09:08:35;13.10;99.90
40600;DHT22;26309;50.924;4.754;2023-04-29T09:11:03;13.40;99.90
40600;DHT22;26309;50.924;4.754;2023-04-29T09:13:30;13.60;99.90
40600;DHT22;26309;50.924;4.754;2023-04-29T09:15:56;13.50;99.90
40600;DHT22;26309;50.924;4.754;2023-04-29T09:18:46;13.10;99.90
40600;DHT22;26309;50.924;4.754;2023-04-29T09:21:16;13.40;99.90
40600;DHT22;26309;50.924;4.754;2023-04-29T09:23:42;13.70;99.90
40600;DHT22;26309;50.924;4.754;2023-04-29T09:26:08;13.90;99.90
40600;DHT22;26309;50.924;4.754;2023-04-29T09:28:34;14.00;99.90
40600;DHT22;26309;50.924;4.754;2023-04-29T09:31:01;14.00;99.90
40600;DHT22;26309;50.924;4.754;2023-04-29T09:33:52;14.10;99.90
40600;DHT22;26309;50.924;4.754;2023-04-29T09:36:35;14.10;99.90
40600;DHT22;26309;50.924;4.754;2023-04-29T09:39:07;14.40;99.90
40600;DHT22;26309;50.924;4.754;2023-04-29T09:44:22;15.10;99.90
40600;DHT22;26309;50.924;4.754;2023-04-29T09:47:05;15.30;99.90
40600;DHT22;26309;50.924;4.754;2023-04-29T09:49:36;15.40;99.90
40600;DHT22;26309;50.924;4.754;2023-04-29T09:52:05;15.30;99.90
40600;DHT22;26309;50.924;4.754;2023-04-29T09:54:36;15.10;99.90
40600;DHT22;26309;50.924;4.754;2023-04-29T09:57:04;15.40;99.90
40600;DHT22;26309;50.924;4.754;2023-04-29T09:59:34;15.80;99.90
40600;DHT22;26309;50.924;4.754;2023-04-29T10:02:06;15.30;99.90
40600;DHT22;26309;50.924;4.754;2023-04-29T10:04:37;15.20;99.90
40600;DHT22;26309;50.924;4.754;2023-04-29T10:07:05;15.40;99.90
40600;DHT22;26309;50.924;4.754;2023-04-29T10:09:32;15.70;99.90
40600;DHT22;26309;50.924;4.754;2023-04-29T10:12:09;15.80;99.90
40600;DHT22;26309;50.924;4.754;2023-04-29T10:14:43;15.10;99.90
40600;DHT22;26309;50.924;4.754;2023-04-29T10:17:17;15.10;99.90
40600;DHT22;26309;50.924;4.754;2023-04-29T10:20:04;15.20;99.90
40600;DHT22;26309;50.924;4.754;2023-04-29T10:22:46;14.80;99.90
40600;DHT22;26309;50.924;4.754;2023-04-29T10:25:15;14.60;99.90
40600;DHT22;26309;50.924;4.754;2023-04-29T10:27:42;14.40;99.90
40600;DHT22;26309;50.924;4.754;2023-04-29T10:30:13;14.70;99.90
40600;DHT22;26309;50.924;4.754;2023-04-29T10:32:40;14.80;99.90
40600;DHT22;26309;50.924;4.754;2023-04-29T10:35:11;14.70;99.90
40600;DHT22;26309;50.924;4.754;2023-04-29T10:37:38;14.70;99.90
40600;DHT22;26309;50.924;4.754;2023-04-29T10:45:27;14.60;99.90
40600;DHT22;26309;50.924;4.754;2023-04-29T10:53:18;15.90;99.90
40600;DHT22;26309;50.924;4.754;2023-04-29T10:56:02;16.00;99.90
40600;DHT22;26309;50.924;4.754;2023-04-29T10:58:41;16.40;99.90
40600;DHT22;26309;50.924;4.754;2023-04-29T11:01:16;16.70;99.90
40600;DHT22;26309;50.924;4.754;2023-04-29T11:04:05;17.00;99.90
40600;DHT22;26309;50.924;4.754;2023-04-29T11:09:20;16.90;99.90
40600;DHT22;26309;50.924;4.754;2023-04-29T11:14:29;16.70;99.90
40600;DHT22;26309;50.924;4.754;2023-04-29T11:17:01;16.60;99.90
40600;DHT22;26309;50.924;4.754;2023-04-29T11:19:40;16.60;99.90
40600;DHT22;26309;50.924;4.754;2023-04-29T11:25:04;16.50;99.90
40600;DHT22;26309;50.924;4.754;2023-04-29T11:27:35;16.30;99.90
40600;DHT22;26309;50.924;4.754;2023-04-29T11:30:03;16.40;99.90
40600;DHT22;26309;50.924;4.754;2023-04-29T11:32:35;16.40;99.90
40600;DHT22;26309;50.924;4.754;2023-04-29T11:35:15;16.40;99.90
40600;DHT22;26309;50.924;4.754;2023-04-29T11:37:43;16.30;99.90
40600;DHT22;26309;50.924;4.754;2023-04-29T11:40:10;16.20;99.90
40600;DHT22;26309;50.924;4.754;2023-04-29T11:42:43;16.10;99.90
40600;DHT22;26309;50.924;4.754;2023-04-29T11:45:10;15.80;99.90
40600;DHT22;26309;50.924;4.754;2023-04-29T11:47:37;16.20;99.90
40600;DHT22;26309;50.924;4.754;2023-04-29T11:50:08;16.50;99.90
40600;DHT22;26309;50.924;4.754;2023-04-29T11:52:37;17.00;99.90
40600;DHT22;26309;50.924;4.754;2023-04-29T11:55:04;17.20;99.90
40600;DHT22;26309;50.924;4.754;2023-04-29T11:57:30;17.60;99.90
40600;DHT22;26309;50.924;4.754;2023-04-29T11:59:57;17.40;99.90
40600;DHT22;26309;50.924;4.754;2023-04-29T12:02:31;17.50;99.90
40600;DHT22;26309;50.924;4.754;2023-04-29T12:04:58;17.80;99.90
40600;DHT22;26309;50.924;4.754;2023-04-29T12:07:26;18.10;99.90
40600;DHT22;26309;50.924;4.754;2023-04-29T12:09:51;18.20;99.90
40600;DHT22;26309;50.924;4.754;2023-04-29T12:12:19;18.50;99.90
40600;DHT22;26309;50.924;4.754;2023-04-29T12:14:45;18.70;99.90
40600;DHT22;26309;50.924;4.754;2023-04-29T12:17:12;19.00;99.90
40600;DHT22;26309;50.924;4.754;2023-04-29T12:19:38;18.80;99.90
40600;DHT22;26309;50.924;4.754;2023-04-29T12:22:06;17.80;99.90
40600;DHT22;26309;50.924;4.754;2023-04-29T12:24:36;17.20;99.90
40600;DHT22;26309;50.924;4.754;2023-04-29T12:27:03;17.40;99.90
40600;DHT22;26309;50.924;4.754;2023-04-29T12:29:34;17.70;99.90
40600;DHT22;26309;50.924;4.754;2023-04-29T12:32:00;17.90;99.90
40600;DHT22;26309;50.924;4.754;2023-04-29T12:34:31;18.20;99.90
40600;DHT22;26309;50.924;4.754;2023-04-29T12:37:01;18.40;99.90
40600;DHT22;26309;50.924;4.754;2023-04-29T12:39:27;18.40;99.90
40600;DHT22;26309;50.924;4.754;2023-04-29T12:41:57;18.40;99.90
40600;DHT22;26309;50.924;4.754;2023-04-29T12:44:24;18.70;99.90
40600;DHT22;26309;50.924;4.754;2023-04-29T12:46:50;18.80;99.90
40600;DHT22;26309;50.924;4.754;2023-04-29T12:49:22;18.90;99.90
40600;DHT22;26309;50.924;4.754;2023-04-29T12:51:49;18.50;99.90
40600;DHT22;26309;50.924;4.754;2023-04-29T12:54:15;18.30;99.90
40600;DHT22;26309;50.924;4.754;2023-04-29T12:56:41;17.90;99.90
40600;DHT22;26309;50.924;4.754;2023-04-29T12:59:08;17.70;99.90
40600;DHT22;26309;50.924;4.754;2023-04-29T13:01:35;17.60;99.90
40600;DHT22;26309;50.924;4.754;2023-04-29T13:04:01;17.50;99.90
40600;DHT22;26309;50.924;4.754;2023-04-29T13:06:27;17.60;99.90
40600;DHT22;26309;50.924;4.754;2023-04-29T13:08:53;17.60;99.90
40600;DHT22;26309;50.924;4.754;2023-04-29T13:11:19;17.50;99.90
40600;DHT22;26309;50.924;4.754;2023-04-29T13:13:45;17.50;99.90
40600;DHT22;26309;50.924;4.754;2023-04-29T13:16:12;17.30;99.90
40600;DHT22;26309;50.924;4.754;2023-04-29T13:18:38;17.30;99.90
40600;DHT22;26309;50.924;4.754;2023-04-29T13:21:04;17.00;99.90
40600;DHT22;26309;50.924;4.754;2023-04-29T13:23:30;16.70;99.90
40600;DHT22;26309;50.924;4.754;2023-04-29T13:25:56;16.70;99.90
40600;DHT22;26309;50.924;4.754;2023-04-29T13:28:22;16.90;99.90
40600;DHT22;26309;50.924;4.754;2023-04-29T13:30:48;17.30;99.90
40600;DHT22;26309;50.924;4.754;2023-04-29T13:33:15;17.60;99.90
40600;DHT22;26309;50.924;4.754;2023-04-29T13:35:41;18.00;99.90
40600;DHT22;26309;50.924;4.754;2023-04-29T13:38:07;18.20;99.90
40600;DHT22;26309;50.924;4.754;2023-04-29T13:40:33;18.60;99.90
40600;DHT22;26309;50.924;4.754;2023-04-29T13:42:59;18.50;99.90
40600;DHT22;26309;50.924;4.754;2023-04-29T13:45:25;18.60;99.90
40600;DHT22;26309;50.924;4.754;2023-04-29T13:47:51;18.70;99.90
40600;DHT22;26309;50.924;4.754;2023-04-29T13:50:17;18.30;99.90
40600;DHT22;26309;50.924;4.754;2023-04-29T13:52:42;18.30;99.90
40600;DHT22;26309;50.924;4.754;2023-04-29T13:55:10;18.50;99.90
40600;DHT22;26309;50.924;4.754;2023-04-29T13:57:36;18.70;99.90
40600;DHT22;26309;50.924;4.754;2023-04-29T14:00:03;18.70;99.90
40600;DHT22;26309;50.924;4.754;2023-04-29T14:02:29;18.70;99.90
40600;DHT22;26309;50.924;4.754;2023-04-29T14:04:55;18.60;99.70
40600;DHT22;26309;50.924;4.754;2023-04-29T14:07:21;18.20;99.90
40600;DHT22;26309;50.924;4.754;2023-04-29T14:09:47;18.10;99.90
40600;DHT22;26309;50.924;4.754;2023-04-29T14:12:13;18.00;99.90
40600;DHT22;26309;50.924;4.754;2023-04-29T14:14:40;17.70;99.90
40600;DHT22;26309;50.924;4.754;2023-04-29T14:17:05;17.50;99.90
40600;DHT22;26309;50.924;4.754;2023-04-29T14:19:31;17.50;99.90
40600;DHT22;26309;50.924;4.754;2023-04-29T14:21:57;17.60;99.90
40600;DHT22;26309;50.924;4.754;2023-04-29T14:24:23;17.90;99.90
40600;DHT22;26309;50.924;4.754;2023-04-29T14:26:49;17.90;99.90
40600;DHT22;26309;50.924;4.754;2023-04-29T14:29:15;18.00;99.90
40600;DHT22;26309;50.924;4.754;2023-04-29T14:31:41;18.00;99.90
40600;DHT22;26309;50.924;4.754;2023-04-29T14:34:06;18.10;99.90
40600;DHT22;26309;50.924;4.754;2023-04-29T14:36:32;18.10;99.90
40600;DHT22;26309;50.924;4.754;2023-04-29T14:38:59;18.10;99.90
40600;DHT22;26309;50.924;4.754;2023-04-29T14:41:26;18.40;99.90
40600;DHT22;26309;50.924;4.754;2023-04-29T14:43:52;18.60;99.90
40600;DHT22;26309;50.924;4.754;2023-04-29T14:46:18;18.70;99.40
40600;DHT22;26309;50.924;4.754;2023-04-29T14:48:44;19.00;99.70
40600;DHT22;26309;50.924;4.754;2023-04-29T14:51:11;19.30;98.40
40600;DHT22;26309;50.924;4.754;2023-04-29T14:53:37;19.10;97.70
40600;DHT22;26309;50.924;4.754;2023-04-29T14:56:03;19.30;98.30
40600;DHT22;26309;50.924;4.754;2023-04-29T14:58:29;19.50;97.70
40600;DHT22;26309;50.924;4.754;2023-04-29T15:00:55;19.70;96.40
40600;DHT22;26309;50.924;4.754;2023-04-29T15:03:22;19.90;96.40
40600;DHT22;26309;50.924;4.754;2023-04-29T15:05:48;19.80;96.40
40600;DHT22;26309;50.924;4.754;2023-04-29T15:08:15;19.90;96.20
40600;DHT22;26309;50.924;4.754;2023-04-29T15:10:43;19.70;95.80
40600;DHT22;26309;50.924;4.754;2023-04-29T15:13:11;19.40;96.00
40600;DHT22;26309;50.924;4.754;2023-04-29T15:15:37;19.40;96.40
40600;DHT22;26309;50.924;4.754;2023-04-29T15:18:03;19.60;95.50
40600;DHT22;26309;50.924;4.754;2023-04-29T15:20:31;19.50;95.30
40600;DHT22;26309;50.924;4.754;2023-04-29T15:22:57;19.40;95.50
40600;DHT22;26309;50.924;4.754;2023-04-29T15:25:23;19.50;95.20
40600;DHT22;26309;50.924;4.754;2023-04-29T15:27:49;19.70;94.70
40600;DHT22;26309;50.924;4.754;2023-04-29T15:30:15;19.70;96.10
40600;DHT22;26309;50.924;4.754;2023-04-29T15:32:42;19.80;94.10
40600;DHT22;26309;50.924;4.754;2023-04-29T15:35:08;19.90;94.50
40600;DHT22;26309;50.924;4.754;2023-04-29T15:37:34;20.00;93.80
40600;DHT22;26309;50.924;4.754;2023-04-29T15:40:00;19.80;93.50
40600;DHT22;26309;50.924;4.754;2023-04-29T15:42:26;19.60;93.70
40600;DHT22;26309;50.924;4.754;2023-04-29T15:44:52;19.50;94.00
40600;DHT22;26309;50.924;4.754;2023-04-29T15:47:18;19.30;94.40
40600;DHT22;26309;50.924;4.754;2023-04-29T15:49:44;19.30;95.00
40600;DHT22;26309;50.924;4.754;2023-04-29T15:52:10;18.90;96.10
40600;DHT22;26309;50.924;4.754;2023-04-29T15:54:36;18.80;95.60
40600;DHT22;26309;50.924;4.754;2023-04-29T15:57:02;18.40;95.90
40600;DHT22;26309;50.924;4.754;2023-04-29T15:59:29;18.10;96.70
40600;DHT22;26309;50.924;4.754;2023-04-29T16:01:55;17.90;97.50
40600;DHT22;26309;50.924;4.754;2023-04-29T16:04:21;17.60;98.30
40600;DHT22;26309;50.924;4.754;2023-04-29T16:06:47;17.50;99.50
40600;DHT22;26309;50.924;4.754;2023-04-29T16:09:13;17.60;99.70